Time;durP1;ratioP1;P1;durP2;ratioP2;P2;SDS_P1;SDS_P2;PMS_P1;PMS_P2;Temp;Humidity;BMP_temperature;BMP_pressure;BME280_temperature;BME280_humidity;BME280_pressure;Samples;Min_cycle;Max_cycle;Signal;HPM_P1;HPM_P2
2023/12/03 00:01:44;;;;;;;25.87;3.43;;;16.20;67.80;;;16.48;46.84;94016.22;4982641;28;20458;-63
2023/12/03 00:04:11;;;;;;;31.07;3.07;;;16.20;68.20;;;16.48;46.64;94021.50;4980272;28;21015;-64
2023/12/03 00:06:38;;;;;;;29.60;3.10;;;16.20;68.10;;;16.49;46.58;94025.78;4978950;28;20460;-66
2023/12/03 00:09:07;;;;;;;19.20;4.37;;;16.20;68.00;;;16.48;46.50;94021.50;4982116;28;20475;-67
2023/12/03 00:11:34;;;;;;;15.40;3.57;;;16.20;68.10;;;16.52;46.64;94018.47;4979834;28;20451;-63
2023/12/03 00:14:02;;;;;;;22.17;4.00;;;16.20;67.90;;;16.52;46.44;94019.28;4980726;28;20843;-63
2023/12/03 00:16:29;;;;;;;20.67;3.43;;;16.20;68.00;;;16.53;46.65;94030.69;4981418;28;21034;-67
2023/12/03 00:18:56;;;;;;;32.53;3.27;;;16.20;68.00;;;16.54;46.81;94040.31;4980711;28;20479;-65
2023/12/03 00:21:24;;;;;;;32.07;4.07;;;16.30;68.20;;;16.55;46.85;94040.13;4983008;28;20462;-67
2023/12/03 00:23:51;;;;;;;27.70;2.83;;;16.30;68.60;;;16.57;46.45;94042.56;4981447;28;20554;-64
2023/12/03 00:26:20;;;;;;;14.03;3.03;;;16.30;68.10;;;16.59;46.76;94059.13;4981075;28;20506;-65
2023/12/03 00:28:47;;;;;;;27.10;3.47;;;16.30;68.60;;;16.61;46.73;94049.13;4979159;28;20463;-66
2023/12/03 00:31:15;;;;;;;36.13;3.70;;;16.30;68.30;;;16.62;46.70;94056.06;4981035;28;20813;-67
2023/12/03 00:33:42;;;;;;;20.93;3.57;;;16.30;68.40;;;16.64;46.55;94052.22;4981525;28;20947;-63
2023/12/03 00:36:10;;;;;;;28.57;3.40;;;16.30;68.20;;;16.63;46.41;94052.41;4980640;28;21030;-66
2023/12/03 00:38:38;;;;;;;19.57;2.97;;;16.30;68.20;;;16.65;46.65;94053.03;4982621;28;20862;-65
2023/12/03 00:41:05;;;;;;;35.57;4.10;;;16.30;68.30;;;16.64;46.99;94060.19;4979973;28;20491;-63
2023/12/03 00:43:34;;;;;;;15.13;3.40;;;16.30;68.70;;;16.65;46.91;94060.97;4982753;28;20458;-66
2023/12/03 00:46:02;;;;;;;16.13;3.07;;;16.40;68.70;;;16.67;46.59;94069.59;4982442;28;20462;-67
2023/12/03 00:48:29;;;;;;;33.43;4.80;;;16.40;68.40;;;16.64;46.50;94062.03;4978734;28;20510;-67
2023/12/03 00:50:57;;;;;;;23.37;3.67;;;16.40;68.50;;;16.68;46.53;94071.22;4978631;28;20466;-63
2023/12/03 00:53:24;;;;;;;38.97;4.10;;;16.40;68.70;;;16.70;46.53;94079.81;4978681;28;20982;-64
2023/12/03 00:55:52;;;;;;;25.83;4.87;;;16.40;68.30;;;16.71;46.75;94080.63;4978912;28;20582;-62
2023/12/03 00:58:19;;;;;;;22.17;3.43;;;16.40;68.50;;;16.73;46.55;94084.75;4981960;28;20455;-64
2023/12/03 01:00:48;;;;;;;25.43;3.40;;;16.40;68.40;;;16.73;46.63;94090.03;4979239;28;20479;-62
2023/12/03 01:03:15;;;;;;;31.20;3.63;;;16.40;68.50;;;16.75;46.60;94088.00;4981815;28;20978;-66
2023/12/03 01:05:42;;;;;;;19.97;3.60;;;16.50;68.90;;;16.77;46.83;94101.09;4979396;28;20471;-62
2023/12/03 01:08:09;;;;;;;22.60;4.10;;;16.50;69.00;;;16.77;46.59;94101.91;4981430;28;20451;-63
2023/12/03 01:10:36;;;;;;;22.10;3.80;;;16.50;68.80;;;16.78;46.87;94092.91;4979014;28;20471;-62
2023/12/03 01:13:04;;;;;;;11.37;3.23;;;16.50;68.80;;;16.80;46.68;94084.75;4981196;28;20481;-66
2023/12/03 01:15:31;;;;;;;22.43;3.87;;;16.50;69.00;;;16.81;46.70;94086.41;4979830;28;20495;-64
2023/12/03 01:18:00;;;;;;;15.33;2.90;;;16.50;68.90;;;16.82;46.93;94088.88;4981033;28;20849;-67
2023/12/03 01:20:27;;;;;;;18.27;3.33;;;16.50;68.90;;;16.85;46.93;94098.25;4979577;28;20526;-63
2023/12/03 01:22:55;;;;;;;18.00;2.83;;;16.50;68.90;;;16.86;46.73;94097.28;4980537;28;20525;-64
2023/12/03 01:25:22;;;;;;;21.83;3.60;;;16.60;69.00;;;16.87;46.46;94106.91;4979701;28;20967;-66
2023/12/03 01:27:49;;;;;;;21.00;4.10;;;16.60;69.10;;;16.87;47.14;94104.25;4980349;28;20458;-63
2023/12/03 01:30:17;;;;;;;40.87;4.90;;;16.60;69.10;;;16.88;46.68;94108.50;4980076;28;20534;-62
2023/12/03 01:32:44;;;;;;;16.53;3.60;;;16.60;70.10;;;16.90;47.10;94100.34;4982836;28;20458;-63
2023/12/03 01:35:13;;;;;;;16.10;3.60;;;16.60;69.30;;;16.90;46.64;94105.66;4984417;28;20841;-66
2023/12/03 01:37:40;;;;;;;29.07;3.87;;;16.60;69.30;;;16.91;47.09;94107.31;4983221;28;20462;-63
2023/12/03 01:40:09;;;;;;;20.10;3.43;;;16.60;69.60;;;16.90;47.58;94105.66;4984785;28;20494;-62
2023/12/03 01:42:36;;;;;;;27.27;3.70;;;16.60;69.70;;;16.88;47.10;94099.75;4982929;28;20989;-63
2023/12/03 01:45:05;;;;;;;27.00;4.87;;;16.60;69.70;;;16.90;46.95;94108.31;4982247;28;20474;-66
2023/12/03 01:47:32;;;;;;;13.83;3.00;;;16.60;69.70;;;16.91;47.04;94105.47;4982801;28;20471;-63
2023/12/03 01:50:01;;;;;;;26.83;3.90;;;16.60;69.70;;;16.90;46.96;94111.81;4985838;28;20477;-65
2023/12/03 01:52:30;;;;;;;27.33;3.17;;;16.60;69.70;;;16.90;46.80;94100.34;4986218;28;20451;-62
2023/12/03 01:54:57;;;;;;;27.53;3.33;;;16.60;69.70;;;16.83;46.76;94098.44;4981983;28;20478;-67
2023/12/03 01:57:24;;;;;;;26.70;3.70;;;16.60;69.70;;;16.89;47.51;94112.00;4981715;28;20487;-61
2023/12/03 01:59:52;;;;;;;27.63;4.93;;;16.60;69.70;;;16.86;47.07;94094.63;4985340;28;20482;-66
2023/12/03 02:02:19;;;;;;;13.93;3.57;;;16.60;69.80;;;16.85;46.91;94096.44;4982825;28;20460;-67
2023/12/03 02:04:46;;;;;;;14.40;2.80;;;16.60;69.70;;;16.84;47.66;94097.44;4985711;28;20486;-66
2023/12/03 02:07:13;;;;;;;19.27;3.20;;;16.50;70.20;;;16.85;47.31;94098.25;4985018;28;20458;-63
2023/12/03 02:09:42;;;;;;;21.37;4.53;;;16.60;70.30;;;16.83;47.57;94090.47;4982706;28;20900;-63
2023/12/03 02:12:10;;;;;;;21.03;3.30;;;16.50;70.50;;;16.82;47.30;94085.38;5015637;28;20462;-66
2023/12/03 02:14:37;;;;;;;26.10;4.10;;;16.50;70.40;;;16.80;47.52;94080.25;4982854;28;20479;-66
2023/12/03 02:17:04;;;;;;;14.53;2.60;;;16.50;70.30;;;16.79;47.71;94089.25;4983488;28;20511;-61
2023/12/03 02:19:32;;;;;;;27.53;3.83;;;16.50;70.80;;;16.78;47.73;94076.19;4982595;28;20482;-63
2023/12/03 02:21:59;;;;;;;26.20;3.97;;;16.50;70.80;;;16.77;47.48;94075.34;4983694;28;20910;-67
2023/12/03 02:24:28;;;;;;;31.50;3.57;;;16.50;70.80;;;16.75;47.98;94073.91;4981138;28;20516;-63
2023/12/03 02:26:55;;;;;;;16.13;3.50;;;16.40;70.80;;;16.73;47.96;94079.44;4983347;28;20463;-63
2023/12/03 02:29:22;;;;;;;21.50;3.10;;;16.40;71.00;;;16.73;48.14;94076.78;4982907;28;20557;-65
2023/12/03 02:31:50;;;;;;;31.27;3.50;;;16.40;71.40;;;16.71;47.80;94081.44;4983174;28;20572;-65
2023/12/03 02:34:17;;;;;;;30.90;3.80;;;16.40;71.10;;;16.68;48.29;94081.84;4982783;28;20478;-62
2023/12/03 02:36:45;;;;;;;27.20;3.60;;;16.40;71.50;;;16.69;48.38;94078.16;4983778;28;20545;-63
2023/12/03 02:39:12;;;;;;;21.07;3.03;;;16.40;71.50;;;16.67;48.47;94082.88;4982399;28;21242;-66
2023/12/03 02:41:41;;;;;;;20.57;3.43;;;16.40;71.90;;;16.67;48.35;94081.03;4984170;28;20462;-62
2023/12/03 02:44:08;;;;;;;13.90;3.17;;;16.40;71.90;;;16.67;48.18;94090.84;4981338;28;20587;-68
2023/12/03 02:46:36;;;;;;;33.10;4.07;;;16.40;72.00;;;16.67;48.70;94101.47;4984048;28;20457;-62
2023/12/03 02:49:03;;;;;;;37.47;4.33;;;16.40;72.10;;;16.66;48.60;94091.84;4981346;28;20474;-62
2023/12/03 02:51:31;;;;;;;25.30;4.10;;;16.40;72.10;;;16.62;48.57;94098.53;4984558;28;20454;-62
2023/12/03 02:53:58;;;;;;;27.73;3.50;;;16.30;72.50;;;16.64;48.43;94093.88;4981026;28;20479;-64
2023/12/03 02:56:25;;;;;;;18.10;4.80;;;16.30;72.40;;;16.65;48.58;94095.50;4980860;28;20490;-66
2023/12/03 02:58:54;;;;;;;18.13;3.60;;;16.30;72.20;;;16.64;48.68;94102.66;4981109;28;20479;-65
2023/12/03 03:01:21;;;;;;;29.77;3.70;;;16.30;72.60;;;16.64;48.50;94100.00;4981440;28;20489;-66
2023/12/03 03:03:48;;;;;;;22.90;4.10;;;16.30;72.50;;;16.63;48.53;94111.63;4984178;28;20533;-66
2023/12/03 03:06:16;;;;;;;17.67;3.67;;;16.30;73.40;;;16.61;49.16;94112.84;4981521;28;20462;-66
2023/12/03 03:08:43;;;;;;;24.53;3.50;;;16.30;72.90;;;16.59;48.91;94110.41;4984737;28;20834;-64
2023/12/03 03:11:10;;;;;;;35.90;3.93;;;16.30;72.80;;;16.59;48.76;94122.84;4982144;28;20455;-65
2023/12/03 03:13:38;;;;;;;33.20;4.07;;;16.30;72.80;;;16.57;49.18;94132.84;4984199;28;20603;-66
2023/12/03 03:16:07;;;;;;;21.10;3.57;;;16.30;73.10;;;16.57;48.73;94122.22;4981558;28;20502;-62
2023/12/03 03:18:36;;;;;;;18.30;4.20;;;16.30;73.10;;;16.54;49.01;94126.06;4983284;28;20455;-65
2023/12/03 03:21:03;;;;;;;30.00;4.07;;;16.20;73.00;;;16.53;48.91;94132.41;4982014;28;20514;-62
2023/12/03 03:23:30;;;;;;;22.37;2.77;;;16.20;73.00;;;16.51;49.08;94144.22;4982470;28;20536;-62
2023/12/03 03:25:58;;;;;;;28.20;3.73;;;16.20;73.20;;;16.48;49.04;94145.44;4981882;28;20957;-66
2023/12/03 03:28:25;;;;;;;32.13;3.73;;;16.20;73.50;;;16.46;49.09;94153.59;4982341;28;20455;-63
2023/12/03 03:30:53;;;;;;;23.63;5.13;;;16.20;73.60;;;16.43;49.05;94161.94;4985823;28;20888;-64
2023/12/03 03:33:21;;;;;;;21.70;4.10;;;16.10;73.50;;;16.39;49.18;94171.31;4982492;28;20465;-65
2023/12/03 03:35:48;;;;;;;21.00;2.80;;;16.10;73.50;;;16.32;49.22;94167.78;4982030;28;20847;-63
2023/12/03 03:38:16;;;;;;;8.13;2.50;;;16.00;73.40;;;16.27;49.21;94178.16;4982743;28;20943;-66
2023/12/03 03:40:43;;;;;;;21.47;3.57;;;16.00;73.50;;;16.22;49.30;94175.25;4981393;28;20548;-62
2023/12/03 03:43:10;;;;;;;21.07;2.90;;;15.90;73.60;;;16.18;49.44;94179.31;4982944;28;20463;-62
2023/12/03 03:45:37;;;;;;;14.17;3.10;;;15.90;73.70;;;16.11;49.38;94176.59;4981459;28;20498;-63
2023/12/03 03:48:05;;;;;;;18.70;3.30;;;15.80;73.80;;;16.06;49.45;94179.81;4982777;28;20461;-63
2023/12/03 03:50:34;;;;;;;14.00;3.77;;;15.80;73.80;;;16.02;49.58;94183.03;4981380;28;20479;-66
2023/12/03 03:53:01;;;;;;;30.40;4.27;;;15.70;74.10;;;15.94;49.53;94187.47;4983584;28;20477;-62
2023/12/03 03:55:28;;;;;;;30.23;4.00;;;15.70;73.80;;;15.89;49.68;94194.34;4979587;28;20806;-61
2023/12/03 03:57:56;;;;;;;20.47;5.10;;;15.60;74.10;;;15.84;49.58;94196.75;4983347;28;20494;-63
2023/12/03 04:00:23;;;;;;;11.40;2.67;;;15.60;74.20;;;15.82;49.69;94209.34;4979839;28;20514;-67
2023/12/03 04:02:51;;;;;;;22.63;4.77;;;15.60;74.30;;;15.81;49.92;94207.75;4980142;28;20521;-63
2023/12/03 04:05:19;;;;;;;10.20;3.47;;;15.50;74.50;;;15.78;49.91;94203.63;4980177;28;20483;-63
2023/12/03 04:07:47;;;;;;;18.57;2.90;;;15.50;74.60;;;15.76;50.06;94198.47;4983773;28;20450;-63
2023/12/03 04:10:15;;;;;;;16.00;3.47;;;15.50;74.80;;;15.74;50.16;94212.94;4980477;28;20467;-62
2023/12/03 04:12:42;;;;;;;16.20;3.27;;;15.50;75.10;;;15.72;50.09;94218.44;4982579;28;20525;-63
2023/12/03 04:15:10;;;;;;;16.03;3.73;;;15.50;75.10;;;15.69;50.16;94221.47;4980768;28;21005;-66
2023/12/03 04:17:38;;;;;;;23.87;3.43;;;15.40;75.00;;;15.67;50.43;94226.13;4982016;28;20581;-63
2023/12/03 04:20:06;;;;;;;20.53;4.50;;;15.40;75.00;;;15.65;50.32;94232.63;4983180;28;20474;-66
2023/12/03 04:22:35;;;;;;;13.00;2.83;;;15.40;75.30;;;15.62;50.39;94239.13;4980617;28;20972;-66
2023/12/03 04:25:04;;;;;;;26.67;3.77;;;15.40;75.50;;;15.60;50.41;94238.50;4981427;28;20917;-62
2023/12/03 04:27:32;;;;;;;24.33;3.10;;;15.30;75.30;;;15.55;50.66;94241.69;4982633;28;20463;-66
2023/12/03 04:29:59;;;;;;;12.57;3.53;;;15.30;75.70;;;15.54;50.68;94249.84;4980800;28;20475;-63
2023/12/03 04:32:27;;;;;;;21.73;2.93;;;15.30;75.90;;;15.49;50.65;94249.56;4981732;28;20467;-66
2023/12/03 04:34:54;;;;;;;22.53;2.63;;;15.30;76.10;;;15.53;50.50;94259.59;4983354;28;20542;-63
2023/12/03 04:37:21;;;;;;;18.67;2.60;;;15.20;76.00;;;15.50;50.83;94259.97;4980124;28;20488;-63
2023/12/03 04:39:48;;;;;;;10.20;2.90;;;15.20;76.30;;;15.48;50.69;94283.19;4982024;28;20478;-66
2023/12/03 04:42:17;;;;;;;14.13;3.03;;;15.20;76.40;;;15.46;51.64;94281.72;4979888;28;21027;-62
2023/12/03 04:44:44;;;;;;;13.73;3.70;;;15.20;77.90;;;15.39;51.80;94290.41;4982381;28;20601;-65
2023/12/03 04:47:13;;;;;;;16.83;3.50;;;15.10;78.20;;;15.32;52.06;94294.81;4979393;28;20471;-66
2023/12/03 04:49:41;;;;;;;17.03;2.83;;;15.10;78.40;;;15.22;52.35;94300.38;4982581;28;20470;-66
2023/12/03 04:52:08;;;;;;;13.87;3.00;;;15.00;78.80;;;15.15;52.26;94295.97;4978999;28;20451;-65
2023/12/03 04:54:35;;;;;;;19.90;2.50;;;15.00;79.00;;;15.11;52.25;94300.03;4979160;28;20463;-62
2023/12/03 04:57:03;;;;;;;8.50;2.60;;;14.90;78.70;;;15.05;52.27;94297.06;4978612;28;20491;-66
2023/12/03 04:59:32;;;;;;;12.23;3.60;;;14.80;79.00;;;15.01;52.23;94313.50;4982752;28;20609;-64
2023/12/03 05:01:59;;;;;;;12.53;3.40;;;14.80;79.00;;;14.99;52.61;94320.81;4977912;28;20465;-65
2023/12/03 05:04:27;;;;;;;12.03;2.87;;;14.70;79.30;;;14.95;52.74;94324.81;4982022;28;20892;-64
2023/12/03 05:06:54;;;;;;;23.67;4.10;;;14.70;79.80;;;14.91;52.70;94331.50;4979566;28;20466;-62
2023/12/03 05:09:21;;;;;;;20.30;3.23;;;14.60;80.40;;;14.85;52.89;94328.53;4981850;28;20568;-67
2023/12/03 05:11:49;;;;;;;14.40;2.57;;;14.60;80.40;;;14.82;53.44;94320.97;4979485;28;20948;-62
2023/12/03 05:14:16;;;;;;;14.13;3.53;;;14.60;81.40;;;14.78;53.55;94343.53;4981450;28;20514;-63
2023/12/03 05:16:45;;;;;;;16.40;3.03;;;14.60;81.80;;;14.74;53.85;94342.22;4979609;28;20541;-65
2023/12/03 05:19:12;;;;;;;11.73;3.37;;;14.50;82.10;;;14.72;53.87;94346.88;4981120;28;20474;-63
2023/12/03 05:21:39;;;;;;;15.07;3.07;;;14.50;82.30;;;14.72;53.90;94343.38;4980342;28;20455;-66
2023/12/03 05:24:07;;;;;;;16.77;4.90;;;14.50;82.80;;;14.68;54.46;94332.34;4980277;28;20517;-62
2023/12/03 05:26:34;;;;;;;16.33;3.40;;;14.40;83.40;;;14.66;54.45;94337.81;4980553;28;20455;-63
2023/12/03 05:29:02;;;;;;;20.87;3.00;;;14.40;83.90;;;14.64;54.83;94339.84;4980086;28;20474;-63
2023/12/03 05:31:29;;;;;;;11.60;2.23;;;14.40;84.50;;;14.61;55.34;94334.88;4979948;28;21186;-64
2023/12/03 05:33:58;;;;;;;20.00;3.60;;;14.40;85.70;;;14.58;55.12;94335.22;4980168;28;20480;-63
2023/12/03 05:36:25;;;;;;;12.97;4.07;;;14.40;85.60;;;14.57;55.66;94340.69;4977835;28;20478;-65
2023/12/03 05:38:53;;;;;;;16.20;3.13;;;14.30;86.40;;;14.56;55.90;94336.38;4978815;28;20479;-62
2023/12/03 05:41:20;;;;;;;7.27;2.73;;;14.30;87.20;;;14.52;57.27;94336.75;4977107;28;20454;-63
2023/12/03 05:43:47;;;;;;;10.20;2.90;;;14.30;89.90;;;14.50;56.33;94335.25;4979507;28;20468;-65
2023/12/03 05:46:15;;;;;;;10.73;3.07;;;14.30;88.50;;;14.47;56.39;94333.00;4980483;28;20481;-63
2023/12/03 05:48:42;;;;;;;15.70;2.47;;;14.20;88.40;;;14.46;57.00;94336.63;4978262;28;20463;-65
2023/12/03 05:51:11;;;;;;;13.43;2.80;;;14.20;90.00;;;14.45;56.27;94340.25;4980973;28;20609;-63
2023/12/03 05:53:38;;;;;;;17.83;4.30;;;14.20;89.60;;;14.45;56.64;94350.84;4977819;28;21031;-66
2023/12/03 05:56:08;;;;;;;15.53;2.43;;;14.20;89.80;;;14.46;56.59;94349.84;4983236;28;20518;-65
2023/12/03 05:58:35;;;;;;;17.83;3.03;;;14.20;90.10;;;14.45;56.68;94364.09;4978387;28;20490;-65
2023/12/03 06:01:02;;;;;;;12.60;3.40;;;14.20;90.60;;;14.44;57.10;94365.91;4981859;28;20458;-67
2023/12/03 06:03:30;;;;;;;26.67;2.43;;;14.20;90.60;;;14.44;58.09;94370.41;4976662;28;20822;-63
2023/12/03 06:05:57;;;;;;;15.33;3.73;;;14.20;91.30;;;14.41;57.01;94368.09;4980393;28;20551;-64
2023/12/03 06:08:26;;;;;;;10.63;3.40;;;14.20;91.10;;;14.41;57.07;94376.84;4978594;28;20459;-62
2023/12/03 06:10:53;;;;;;;14.57;2.13;;;14.20;91.10;;;14.42;56.99;94382.94;4980229;28;20454;-65
2023/12/03 06:13:21;;;;;;;5.47;3.23;;;14.10;91.00;;;14.42;57.61;94385.59;4978838;28;20458;-63
2023/12/03 06:15:48;;;;;;;11.73;4.40;;;14.20;91.60;;;14.42;57.34;94393.53;4985685;28;20462;-62
2023/12/03 06:18:16;;;;;;;12.40;3.23;;;14.20;91.70;;;14.43;57.47;94401.31;4979649;28;20556;-66
2023/12/03 06:20:43;;;;;;;9.67;2.93;;;14.10;91.90;;;14.42;57.82;94399.66;4982935;28;20474;-67
2023/12/03 06:23:12;;;;;;;21.20;3.17;;;14.20;92.20;;;14.43;58.20;94400.50;4983487;28;20470;-65
2023/12/03 06:25:41;;;;;;;22.50;3.87;;;14.20;92.60;;;14.44;58.58;94407.44;4983346;28;20501;-63
2023/12/03 06:28:08;;;;;;;15.03;2.77;;;14.20;93.00;;;14.43;58.12;94411.88;4982859;28;20459;-65
2023/12/03 06:30:35;;;;;;;4.97;2.87;;;14.20;92.90;;;14.41;58.37;94416.53;4983723;28;20471;-65
2023/12/03 06:33:03;;;;;;;9.90;3.00;;;14.20;93.30;;;14.40;58.58;94419.34;4984173;28;20452;-65
2023/12/03 06:35:30;;;;;;;13.57;3.13;;;14.10;93.50;;;14.38;58.63;94430.13;4982139;28;20474;-66
2023/12/03 06:37:57;;;;;;;13.03;3.33;;;14.10;93.80;;;14.37;58.72;94423.16;4983737;28;20494;-66
2023/12/03 06:40:24;;;;;;;10.10;3.10;;;14.20;94.00;;;14.37;59.14;94428.47;4981875;28;20475;-65
2023/12/03 06:42:53;;;;;;;19.07;4.20;;;14.10;94.20;;;14.37;59.22;94436.41;4984710;28;20462;-63
2023/12/03 06:45:21;;;;;;;17.73;4.17;;;14.10;94.30;;;14.39;59.20;94444.16;4982249;28;20481;-64
2023/12/03 06:47:48;;;;;;;23.30;5.37;;;14.10;94.40;;;14.40;59.51;94453.75;4983818;28;20459;-66
2023/12/03 06:50:15;;;;;;;18.10;5.07;;;14.10;94.80;;;14.40;59.55;94454.56;4983435;28;20478;-57
2023/12/03 06:52:43;;;;;;;13.30;3.90;;;14.10;95.10;;;14.40;59.93;94470.44;4980184;28;20502;-67
2023/12/03 06:55:10;;;;;;;14.13;3.57;;;14.10;95.40;;;14.40;60.13;94469.63;4983093;28;20481;-63
2023/12/03 06:57:37;;;;;;;14.80;3.67;;;14.20;95.70;;;14.39;60.22;94460.88;4979751;28;20490;-66
2023/12/03 07:00:08;;;;;;;20.87;4.77;;;14.20;96.10;;;14.38;60.25;94461.88;4979458;28;20547;-65
2023/12/03 07:02:36;;;;;;;15.97;3.60;;;14.10;96.30;;;14.38;60.60;94471.63;4975198;28;20453;-64
2023/12/03 07:05:04;;;;;;;19.77;3.80;;;14.10;96.60;;;14.36;60.74;94471.81;4981067;28;20479;-64
2023/12/03 07:07:32;;;;;;;17.30;4.20;;;14.10;96.90;;;14.36;61.11;94479.75;4983542;28;20451;-66
2023/12/03 07:09:59;;;;;;;23.87;3.93;;;14.10;97.00;;;14.35;62.35;94484.19;4981779;28;20553;-66
2023/12/03 07:12:26;;;;;;;11.50;3.20;;;14.10;98.00;;;14.34;60.99;94495.78;4980236;28;20471;-63
2023/12/03 07:14:53;;;;;;;18.40;4.20;;;14.10;97.30;;;14.32;61.22;94500.41;4982930;28;20533;-63
2023/12/03 07:17:22;;;;;;;16.37;2.50;;;14.10;97.70;;;14.28;61.43;94496.47;4982131;28;20499;-65
2023/12/03 07:19:49;;;;;;;22.90;3.27;;;14.00;97.60;;;14.24;61.92;94487.22;4982464;28;20494;-64
2023/12/03 07:22:17;;;;;;;10.83;3.23;;;14.00;98.20;;;14.22;61.79;94483.94;4982672;28;20962;-65
2023/12/03 07:24:44;;;;;;;24.37;3.43;;;14.00;98.00;;;14.19;61.64;94497.50;4982749;28;20894;-63
2023/12/03 07:27:11;;;;;;;15.13;3.77;;;14.00;98.20;;;14.17;62.28;94512.69;4982403;28;20459;-65
2023/12/03 07:29:39;;;;;;;10.50;2.97;;;13.90;98.90;;;14.14;62.12;94513.03;4981410;28;20581;-65
2023/12/03 07:32:07;;;;;;;15.10;3.50;;;13.90;98.50;;;14.10;62.46;94524.97;4981883;28;20451;-64
2023/12/03 07:34:35;;;;;;;10.87;3.30;;;13.90;98.90;;;14.07;62.00;94522.66;4981019;28;20478;-64
2023/12/03 07:37:03;;;;;;;17.40;3.70;;;13.90;98.50;;;14.04;62.86;94518.53;4982822;28;20463;-65
2023/12/03 07:39:30;;;;;;;8.50;3.07;;;13.80;99.40;;;14.02;63.05;94527.63;4981334;28;20583;-64
2023/12/03 07:41:58;;;;;;;8.00;3.97;;;13.80;99.50;;;13.95;63.54;94525.66;4983280;28;20990;-65
2023/12/03 07:44:25;;;;;;;11.53;4.10;;;13.80;99.90;;;13.88;63.27;94535.28;4983437;28;20475;-65
2023/12/03 07:46:54;;;;;;;10.37;3.60;;;13.70;99.70;;;13.77;62.99;94544.38;4984782;28;20538;-63
2023/12/03 07:49:21;;;;;;;7.87;4.80;;;13.60;99.70;;;13.67;62.50;94561.41;4981138;28;20549;-64
2023/12/03 07:51:50;;;;;;;8.37;4.53;;;13.50;99.10;;;13.52;63.07;94567.34;4980492;28;20467;-61
2023/12/03 07:54:18;;;;;;;12.70;5.27;;;13.40;99.60;;;13.40;62.77;94560.72;4978141;28;20486;-63
2023/12/03 07:56:45;;;;;;;7.70;5.03;;;13.30;99.40;;;13.28;63.15;94576.88;4981992;28;20451;-63
2023/12/03 07:59:12;;;;;;;6.47;5.17;;;13.20;99.80;;;13.15;63.07;94580.97;4983700;28;20502;-63
2023/12/03 08:01:40;;;;;;;7.90;5.10;;;13.00;99.50;;;12.97;63.57;94605.72;4979318;28;20451;-65
2023/12/03 08:04:07;;;;;;;11.13;5.23;;;12.90;99.90;;;12.83;63.88;94593.13;4982493;28;20532;-63
2023/12/03 08:06:34;;;;;;;10.43;6.30;;;12.70;99.90;;;12.69;64.16;94611.22;4980561;28;20451;-66
2023/12/03 08:09:03;;;;;;;11.50;5.60;;;12.60;99.90;;;12.55;64.33;94603.91;4981611;28;20474;-64
2023/12/03 08:11:31;;;;;;;7.53;5.30;;;12.50;99.90;;;12.43;63.99;94618.38;4980803;28;20452;-64
2023/12/03 08:13:59;;;;;;;8.30;5.80;;;12.30;99.90;;;12.30;65.38;94631.97;4981852;28;20482;-63
2023/12/03 08:16:26;;;;;;;17.33;6.30;;;12.20;99.90;;;12.11;64.64;94631.19;4981074;28;20960;-62
2023/12/03 08:18:53;;;;;;;10.70;5.93;;;12.00;99.90;;;11.94;64.89;94637.34;4981541;28;20491;-65
2023/12/03 08:21:21;;;;;;;9.83;6.50;;;11.90;99.90;;;11.82;64.67;94650.75;4981238;28;20814;-62
2023/12/03 08:23:48;;;;;;;13.50;6.90;;;11.70;99.90;;;11.68;65.19;94661.84;4981311;28;20940;-63
2023/12/03 08:26:17;;;;;;;8.53;6.97;;;11.60;99.90;;;11.55;64.67;94671.91;4981018;28;20524;-65
2023/12/03 08:28:44;;;;;;;20.43;7.93;;;11.50;99.90;;;11.44;64.60;94679.06;4981290;28;20469;-64
2023/12/03 08:31:11;;;;;;;7.57;6.13;;;11.40;99.90;;;11.33;64.86;94679.28;4981604;28;20460;-63
2023/12/03 08:33:39;;;;;;;10.30;6.57;;;11.20;99.90;;;11.23;64.82;94681.13;4980075;28;20457;-66
2023/12/03 08:36:08;;;;;;;15.83;6.90;;;11.20;99.90;;;11.16;65.05;94661.66;4981348;28;20451;-64
2023/12/03 08:38:35;;;;;;;9.27;7.30;;;11.10;99.90;;;11.06;64.30;94672.22;4979705;28;20530;-63
2023/12/03 08:41:02;;;;;;;8.70;6.50;;;11.00;99.90;;;10.93;64.72;94664.69;4981943;28;20519;-64
2023/12/03 08:43:31;;;;;;;22.37;6.83;;;10.90;99.90;;;10.85;65.20;94660.16;4979792;28;21013;-64
2023/12/03 08:45:58;;;;;;;13.33;8.47;;;10.80;99.90;;;10.76;65.50;94667.13;4982729;28;20450;-65
2023/12/03 08:48:26;;;;;;;16.80;8.93;;;10.70;99.90;;;10.73;65.60;94675.31;4978927;28;20454;-64
2023/12/03 08:50:53;;;;;;;15.37;7.50;;;10.60;99.90;;;10.69;65.36;94679.22;4982410;28;20455;-63
2023/12/03 08:53:21;;;;;;;14.03;7.60;;;10.60;99.90;;;10.65;65.31;94691.00;4982735;28;20533;-64
2023/12/03 08:55:48;;;;;;;9.27;7.43;;;10.60;99.90;;;10.62;65.42;94680.75;4979220;28;21020;-64
2023/12/03 08:58:15;;;;;;;17.07;7.23;;;10.50;99.90;;;10.59;65.20;94675.78;4982335;28;21023;-63
2023/12/03 09:00:44;;;;;;;17.87;8.10;;;10.50;99.90;;;10.56;65.10;94670.81;4978688;28;20494;-63
2023/12/03 09:03:11;;;;;;;12.87;7.37;;;10.50;99.90;;;10.52;65.28;94683.44;4981682;28;20459;-67
2023/12/03 09:05:39;;;;;;;9.83;8.43;;;10.40;99.90;;;10.48;65.64;94687.31;4979909;28;20574;-63
2023/12/03 09:08:06;;;;;;;10.37;7.60;;;10.40;99.90;;;10.48;66.27;94682.06;4981887;28;20874;-63
2023/12/03 09:10:33;;;;;;;9.17;7.20;;;10.40;99.90;;;10.47;65.70;94684.84;4979715;28;20471;-67
2023/12/03 09:13:01;;;;;;;11.80;8.43;;;10.30;99.90;;;10.42;65.59;94679.19;4982264;28;20450;-63
2023/12/03 09:15:28;;;;;;;13.50;8.07;;;10.30;99.90;;;10.34;65.59;94687.78;4979884;28;20910;-67
2023/12/03 09:17:57;;;;;;;13.53;8.57;;;10.30;99.90;;;10.26;65.59;94683.22;4980982;28;20542;-63
2023/12/03 09:20:25;;;;;;;8.90;7.53;;;10.20;99.90;;;10.19;65.92;94690.00;4980539;28;20607;-68
2023/12/03 09:22:52;;;;;;;16.50;8.67;;;10.10;99.90;;;10.14;65.80;94697.50;4980524;28;20455;-63
2023/12/03 09:25:20;;;;;;;16.80;7.77;;;10.10;99.90;;;10.09;66.37;94710.22;4980508;28;20865;-63
2023/12/03 09:27:47;;;;;;;11.47;8.27;;;10.00;99.90;;;10.03;66.52;94701.09;4980195;28;20985;-62
2023/12/03 09:30:15;;;;;;;12.10;7.57;;;9.90;99.90;;;9.95;66.11;94699.19;4980522;28;20480;-67
2023/12/03 09:32:42;;;;;;;13.43;8.00;;;9.90;99.90;;;9.91;66.68;94710.91;4978409;28;20454;-62
2023/12/03 09:35:11;;;;;;;9.40;7.03;;;9.80;99.90;;;9.85;66.15;94699.19;4980203;28;20466;-65
2023/12/03 09:37:38;;;;;;;9.87;8.07;;;9.80;99.90;;;9.81;66.08;94721.44;4979755;28;20455;-62
2023/12/03 09:40:07;;;;;;;14.50;9.03;;;9.80;99.90;;;9.79;66.14;94720.75;4977619;28;20510;-63
2023/12/03 09:42:39;;;;;;;10.23;8.10;;;9.70;99.90;;;9.77;66.25;94732.38;4981228;28;20978;-63
2023/12/03 09:45:09;;;;;;;17.33;9.10;;;9.70;99.90;;;9.77;66.36;94727.13;4978117;28;20481;-67
2023/12/03 09:47:37;;;;;;;9.60;7.93;;;9.70;99.90;;;9.77;66.19;94719.22;4978394;28;20443;-66
2023/12/03 09:50:06;;;;;;;12.63;8.40;;;9.70;99.90;;;9.76;66.27;94733.31;4981468;28;20486;-65
2023/12/03 09:52:36;;;;;;;12.30;8.27;;;9.70;99.90;;;9.73;66.78;94726.56;4978990;28;20450;-63
2023/12/03 09:55:05;;;;;;;21.00;9.07;;;9.70;99.90;;;9.68;65.90;94729.63;4983424;28;20471;-63
2023/12/03 09:57:32;;;;;;;14.47;8.27;;;9.60;99.90;;;9.62;65.82;94742.44;4983691;28;20541;-62
2023/12/03 10:00:04;;;;;;;12.97;7.40;;;9.60;99.90;;;9.56;65.63;94753.50;4984154;28;20491;-62
2023/12/03 10:02:31;;;;;;;11.20;7.80;;;9.50;99.90;;;9.47;65.64;94739.41;4982242;28;21036;-62
2023/12/03 10:04:57;;;;;;;12.00;7.50;;;9.40;99.90;;;9.39;65.88;94754.97;4984674;28;20995;-66
2023/12/03 10:07:28;;;;;;;12.93;7.40;;;9.30;99.90;;;9.31;65.48;94759.13;4982692;28;20447;-62
2023/12/03 10:09:58;;;;;;;13.13;7.53;;;9.30;99.90;;;9.27;65.83;94768.22;4983736;28;20498;-66
2023/12/03 10:12:26;;;;;;;9.70;7.80;;;9.20;99.90;;;9.20;65.01;94768.91;4982223;28;20562;-62
2023/12/03 10:14:54;;;;;;;8.80;7.83;;;9.20;99.90;;;9.13;65.10;94772.06;4981912;28;20471;-61
2023/12/03 10:17:21;;;;;;;12.50;7.30;;;9.10;99.90;;;9.08;65.10;94774.25;4977753;28;20486;-63